sensor_id;sensor_type;location;lat;lon;timestamp;P1;durP1;ratioP1;P2;durP2;ratioP2
72611;SDS011;60655;52.182;4.474;2024-01-06T00:02:02;11.15;;;3.90;;
72611;SDS011;60655;52.182;4.474;2024-01-06T00:04:03;11.68;;;3.60;;
72611;SDS011;60655;52.182;4.474;2024-01-06T00:06:04;12.65;;;3.25;;
72611;SDS011;60655;52.182;4.474;2024-01-06T00:08:05;8.43;;;3.65;;
72611;SDS011;60655;52.182;4.474;2024-01-06T00:12:07;6.97;;;2.90;;
72611;SDS011;60655;52.182;4.474;2024-01-06T00:14:08;9.70;;;4.03;;
72611;SDS011;60655;52.182;4.474;2024-01-06T00:18:10;7.45;;;2.50;;
72611;SDS011;60655;52.182;4.474;2024-01-06T00:20:11;8.70;;;3.05;;
72611;SDS011;60655;52.182;4.474;2024-01-06T00:22:12;10.25;;;2.83;;
72611;SDS011;60655;52.182;4.474;2024-01-06T00:24:13;8.63;;;3.05;;
72611;SDS011;60655;52.182;4.474;2024-01-06T00:26:14;7.25;;;3.00;;
72611;SDS011;60655;52.182;4.474;2024-01-06T00:28:15;7.47;;;2.90;;
72611;SDS011;60655;52.182;4.474;2024-01-06T00:30:15;8.95;;;2.88;;
72611;SDS011;60655;52.182;4.474;2024-01-06T00:32:16;8.05;;;2.92;;
72611;SDS011;60655;52.182;4.474;2024-01-06T00:34:17;8.77;;;3.17;;
72611;SDS011;60655;52.182;4.474;2024-01-06T00:36:18;8.40;;;3.00;;
72611;SDS011;60655;52.182;4.474;2024-01-06T00:38:19;8.25;;;3.25;;
72611;SDS011;60655;52.182;4.474;2024-01-06T00:42:21;7.57;;;2.60;;
72611;SDS011;60655;52.182;4.474;2024-01-06T00:44:22;8.70;;;2.85;;
72611;SDS011;60655;52.182;4.474;2024-01-06T00:46:23;8.32;;;2.55;;
72611;SDS011;60655;52.182;4.474;2024-01-06T00:48:23;5.93;;;2.42;;
72611;SDS011;60655;52.182;4.474;2024-01-06T00:50:24;11.00;;;2.47;;
72611;SDS011;60655;52.182;4.474;2024-01-06T00:52:25;7.40;;;2.35;;
72611;SDS011;60655;52.182;4.474;2024-01-06T00:54:26;8.80;;;2.78;;
72611;SDS011;60655;52.182;4.474;2024-01-06T00:56:27;6.65;;;2.40;;
72611;SDS011;60655;52.182;4.474;2024-01-06T00:58:29;7.78;;;2.47;;
72611;SDS011;60655;52.182;4.474;2024-01-06T01:00:30;6.63;;;2.42;;
72611;SDS011;60655;52.182;4.474;2024-01-06T01:02:31;7.78;;;2.55;;
72611;SDS011;60655;52.182;4.474;2024-01-06T01:04:32;6.07;;;2.58;;
72611;SDS011;60655;52.182;4.474;2024-01-06T01:06:33;7.00;;;2.70;;
72611;SDS011;60655;52.182;4.474;2024-01-06T01:08:34;8.10;;;2.47;;
72611;SDS011;60655;52.182;4.474;2024-01-06T01:10:35;5.90;;;2.15;;
72611;SDS011;60655;52.182;4.474;2024-01-06T01:12:36;6.53;;;2.30;;
72611;SDS011;60655;52.182;4.474;2024-01-06T01:14:37;5.57;;;1.65;;
72611;SDS011;60655;52.182;4.474;2024-01-06T01:16:38;9.57;;;2.13;;
72611;SDS011;60655;52.182;4.474;2024-01-06T01:18:38;6.93;;;1.60;;
72611;SDS011;60655;52.182;4.474;2024-01-06T01:20:39;5.20;;;1.80;;
72611;SDS011;60655;52.182;4.474;2024-01-06T01:22:42;4.55;;;1.63;;
72611;SDS011;60655;52.182;4.474;2024-01-06T01:24:43;4.60;;;1.30;;
72611;SDS011;60655;52.182;4.474;2024-01-06T01:26:44;5.07;;;1.50;;
72611;SDS011;60655;52.182;4.474;2024-01-06T01:28:45;3.20;;;1.30;;
72611;SDS011;60655;52.182;4.474;2024-01-06T01:30:46;4.28;;;1.67;;
72611;SDS011;60655;52.182;4.474;2024-01-06T01:32:46;4.43;;;1.55;;
72611;SDS011;60655;52.182;4.474;2024-01-06T01:34:47;3.45;;;1.33;;
72611;SDS011;60655;52.182;4.474;2024-01-06T01:36:48;3.47;;;1.33;;
72611;SDS011;60655;52.182;4.474;2024-01-06T01:38:49;5.32;;;1.58;;
72611;SDS011;60655;52.182;4.474;2024-01-06T01:42:51;4.78;;;1.23;;
72611;SDS011;60655;52.182;4.474;2024-01-06T01:44:52;5.65;;;1.95;;
72611;SDS011;60655;52.182;4.474;2024-01-06T01:46:53;8.05;;;2.05;;
72611;SDS011;60655;52.182;4.474;2024-01-06T01:48:57;6.10;;;2.00;;
72611;SDS011;60655;52.182;4.474;2024-01-06T01:51:00;4.63;;;1.90;;
72611;SDS011;60655;52.182;4.474;2024-01-06T01:53:01;4.50;;;1.83;;
72611;SDS011;60655;52.182;4.474;2024-01-06T01:55:01;7.35;;;1.77;;
72611;SDS011;60655;52.182;4.474;2024-01-06T01:59:13;5.43;;;1.80;;
72611;SDS011;60655;52.182;4.474;2024-01-06T02:01:15;5.55;;;1.63;;
72611;SDS011;60655;52.182;4.474;2024-01-06T02:03:15;6.18;;;2.30;;
72611;SDS011;60655;52.182;4.474;2024-01-06T02:05:17;5.55;;;2.20;;
72611;SDS011;60655;52.182;4.474;2024-01-06T02:07:18;6.68;;;2.20;;
72611;SDS011;60655;52.182;4.474;2024-01-06T02:09:18;10.43;;;2.83;;
72611;SDS011;60655;52.182;4.474;2024-01-06T02:11:19;7.80;;;2.35;;
72611;SDS011;60655;52.182;4.474;2024-01-06T02:13:20;6.60;;;2.30;;
72611;SDS011;60655;52.182;4.474;2024-01-06T02:15:21;7.68;;;2.40;;
72611;SDS011;60655;52.182;4.474;2024-01-06T02:17:22;6.40;;;2.25;;
72611;SDS011;60655;52.182;4.474;2024-01-06T02:19:23;5.63;;;2.13;;
72611;SDS011;60655;52.182;4.474;2024-01-06T02:21:25;7.22;;;2.60;;
72611;SDS011;60655;52.182;4.474;2024-01-06T02:23:28;5.85;;;2.35;;
72611;SDS011;60655;52.182;4.474;2024-01-06T02:25:30;7.78;;;2.85;;
72611;SDS011;60655;52.182;4.474;2024-01-06T02:27:31;8.48;;;2.95;;
72611;SDS011;60655;52.182;4.474;2024-01-06T02:29:32;11.77;;;3.13;;
72611;SDS011;60655;52.182;4.474;2024-01-06T02:31:33;11.63;;;3.40;;
72611;SDS011;60655;52.182;4.474;2024-01-06T02:33:34;8.20;;;3.03;;
72611;SDS011;60655;52.182;4.474;2024-01-06T02:35:35;7.78;;;2.83;;
72611;SDS011;60655;52.182;4.474;2024-01-06T02:39:37;5.55;;;2.45;;
72611;SDS011;60655;52.182;4.474;2024-01-06T02:41:37;8.57;;;2.53;;
72611;SDS011;60655;52.182;4.474;2024-01-06T02:43:39;12.27;;;3.08;;
72611;SDS011;60655;52.182;4.474;2024-01-06T02:45:39;10.70;;;3.05;;
72611;SDS011;60655;52.182;4.474;2024-01-06T02:47:40;9.98;;;3.38;;
72611;SDS011;60655;52.182;4.474;2024-01-06T02:49:41;5.70;;;2.55;;
72611;SDS011;60655;52.182;4.474;2024-01-06T02:51:42;10.73;;;3.35;;
72611;SDS011;60655;52.182;4.474;2024-01-06T02:53:43;8.48;;;3.20;;
72611;SDS011;60655;52.182;4.474;2024-01-06T02:55:44;13.45;;;3.22;;
72611;SDS011;60655;52.182;4.474;2024-01-06T02:57:45;11.48;;;3.45;;
72611;SDS011;60655;52.182;4.474;2024-01-06T02:59:46;9.68;;;2.75;;
72611;SDS011;60655;52.182;4.474;2024-01-06T03:01:47;6.97;;;2.70;;
72611;SDS011;60655;52.182;4.474;2024-01-06T03:03:47;9.15;;;2.88;;
72611;SDS011;60655;52.182;4.474;2024-01-06T03:05:48;5.72;;;2.70;;
72611;SDS011;60655;52.182;4.474;2024-01-06T03:07:49;9.85;;;2.75;;
72611;SDS011;60655;52.182;4.474;2024-01-06T03:09:50;9.55;;;2.63;;
72611;SDS011;60655;52.182;4.474;2024-01-06T03:11:51;6.57;;;2.33;;
72611;SDS011;60655;52.182;4.474;2024-01-06T03:13:52;9.52;;;2.55;;
72611;SDS011;60655;52.182;4.474;2024-01-06T03:15:53;5.93;;;2.03;;
72611;SDS011;60655;52.182;4.474;2024-01-06T03:17:55;7.05;;;2.63;;
72611;SDS011;60655;52.182;4.474;2024-01-06T03:22:00;7.82;;;2.30;;
72611;SDS011;60655;52.182;4.474;2024-01-06T03:24:01;9.90;;;2.92;;
72611;SDS011;60655;52.182;4.474;2024-01-06T03:26:05;6.07;;;2.67;;
72611;SDS011;60655;52.182;4.474;2024-01-06T03:28:06;9.18;;;2.78;;
72611;SDS011;60655;52.182;4.474;2024-01-06T03:30:07;6.70;;;3.03;;
72611;SDS011;60655;52.182;4.474;2024-01-06T03:32:08;9.68;;;3.17;;
72611;SDS011;60655;52.182;4.474;2024-01-06T03:34:09;8.38;;;2.80;;
72611;SDS011;60655;52.182;4.474;2024-01-06T03:36:13;10.43;;;3.33;;
72611;SDS011;60655;52.182;4.474;2024-01-06T03:38:17;12.57;;;2.90;;
72611;SDS011;60655;52.182;4.474;2024-01-06T03:40:18;8.38;;;2.88;;
72611;SDS011;60655;52.182;4.474;2024-01-06T03:42:19;11.00;;;3.22;;
72611;SDS011;60655;52.182;4.474;2024-01-06T03:44:20;8.55;;;2.70;;
72611;SDS011;60655;52.182;4.474;2024-01-06T03:48:22;5.85;;;2.35;;
72611;SDS011;60655;52.182;4.474;2024-01-06T03:50:23;6.78;;;2.80;;
72611;SDS011;60655;52.182;4.474;2024-01-06T03:52:24;6.97;;;2.22;;
72611;SDS011;60655;52.182;4.474;2024-01-06T03:54:25;5.30;;;2.28;;
72611;SDS011;60655;52.182;4.474;2024-01-06T03:56:26;8.07;;;2.55;;
72611;SDS011;60655;52.182;4.474;2024-01-06T03:58:27;9.60;;;2.67;;
72611;SDS011;60655;52.182;4.474;2024-01-06T04:00:28;10.45;;;3.45;;
72611;SDS011;60655;52.182;4.474;2024-01-06T04:02:29;11.27;;;2.38;;
72611;SDS011;60655;52.182;4.474;2024-01-06T04:04:30;6.20;;;2.20;;
72611;SDS011;60655;52.182;4.474;2024-01-06T04:06:30;6.93;;;2.30;;
72611;SDS011;60655;52.182;4.474;2024-01-06T04:08:32;7.65;;;2.55;;
72611;SDS011;60655;52.182;4.474;2024-01-06T04:10:33;7.38;;;2.20;;
72611;SDS011;60655;52.182;4.474;2024-01-06T04:12:34;8.00;;;2.28;;
72611;SDS011;60655;52.182;4.474;2024-01-06T04:14:35;7.40;;;2.20;;
72611;SDS011;60655;52.182;4.474;2024-01-06T04:16:36;8.45;;;2.25;;
72611;SDS011;60655;52.182;4.474;2024-01-06T04:18:37;5.03;;;2.00;;
72611;SDS011;60655;52.182;4.474;2024-01-06T04:20:37;6.95;;;2.35;;
72611;SDS011;60655;52.182;4.474;2024-01-06T04:22:38;5.38;;;2.05;;
72611;SDS011;60655;52.182;4.474;2024-01-06T04:24:39;6.47;;;2.25;;
72611;SDS011;60655;52.182;4.474;2024-01-06T04:26:41;5.80;;;2.00;;
72611;SDS011;60655;52.182;4.474;2024-01-06T04:28:45;4.32;;;1.60;;
72611;SDS011;60655;52.182;4.474;2024-01-06T04:30:46;3.38;;;1.52;;
72611;SDS011;60655;52.182;4.474;2024-01-06T04:32:47;6.65;;;2.08;;
72611;SDS011;60655;52.182;4.474;2024-01-06T04:34:50;6.80;;;1.88;;
72611;SDS011;60655;52.182;4.474;2024-01-06T04:36:51;4.55;;;1.63;;
72611;SDS011;60655;52.182;4.474;2024-01-06T04:38:52;5.82;;;2.03;;
72611;SDS011;60655;52.182;4.474;2024-01-06T04:40:53;7.47;;;1.70;;
72611;SDS011;60655;52.182;4.474;2024-01-06T04:42:54;4.18;;;1.52;;
72611;SDS011;60655;52.182;4.474;2024-01-06T04:44:55;5.13;;;2.05;;
72611;SDS011;60655;52.182;4.474;2024-01-06T04:46:56;6.15;;;1.90;;
72611;SDS011;60655;52.182;4.474;2024-01-06T04:48:57;6.07;;;1.70;;
72611;SDS011;60655;52.182;4.474;2024-01-06T04:50:58;6.95;;;1.58;;
72611;SDS011;60655;52.182;4.474;2024-01-06T04:52:59;4.07;;;1.65;;
72611;SDS011;60655;52.182;4.474;2024-01-06T04:54:59;8.70;;;1.50;;
72611;SDS011;60655;52.182;4.474;2024-01-06T04:57:02;3.38;;;1.35;;
72611;SDS011;60655;52.182;4.474;2024-01-06T05:01:03;4.03;;;1.58;;
72611;SDS011;60655;52.182;4.474;2024-01-06T05:03:05;4.38;;;1.60;;
72611;SDS011;60655;52.182;4.474;2024-01-06T05:05:06;5.60;;;1.83;;
72611;SDS011;60655;52.182;4.474;2024-01-06T05:07:06;5.47;;;2.10;;
72611;SDS011;60655;52.182;4.474;2024-01-06T05:09:07;6.18;;;2.05;;
72611;SDS011;60655;52.182;4.474;2024-01-06T05:11:08;4.38;;;1.70;;
72611;SDS011;60655;52.182;4.474;2024-01-06T05:13:09;7.63;;;1.80;;
72611;SDS011;60655;52.182;4.474;2024-01-06T05:15:10;4.45;;;1.70;;
72611;SDS011;60655;52.182;4.474;2024-01-06T05:17:12;5.68;;;1.77;;
72611;SDS011;60655;52.182;4.474;2024-01-06T05:19:13;5.38;;;1.70;;
72611;SDS011;60655;52.182;4.474;2024-01-06T05:21:20;6.35;;;1.92;;
72611;SDS011;60655;52.182;4.474;2024-01-06T05:23:21;6.93;;;1.85;;
72611;SDS011;60655;52.182;4.474;2024-01-06T05:25:22;5.28;;;1.67;;
72611;SDS011;60655;52.182;4.474;2024-01-06T05:27:23;4.18;;;1.58;;
72611;SDS011;60655;52.182;4.474;2024-01-06T05:29:23;5.22;;;1.88;;
72611;SDS011;60655;52.182;4.474;2024-01-06T05:31:26;4.07;;;1.58;;
72611;SDS011;60655;52.182;4.474;2024-01-06T05:33:27;3.83;;;1.50;;
72611;SDS011;60655;52.182;4.474;2024-01-06T05:35:28;5.97;;;1.70;;
72611;SDS011;60655;52.182;4.474;2024-01-06T05:37:29;4.68;;;1.42;;
72611;SDS011;60655;52.182;4.474;2024-01-06T05:39:31;6.05;;;1.60;;
72611;SDS011;60655;52.182;4.474;2024-01-06T05:43:40;2.15;;;1.10;;
72611;SDS011;60655;52.182;4.474;2024-01-06T05:45:41;3.38;;;1.30;;
72611;SDS011;60655;52.182;4.474;2024-01-06T05:47:45;3.47;;;1.15;;
72611;SDS011;60655;52.182;4.474;2024-01-06T05:49:46;5.07;;;1.13;;
72611;SDS011;60655;52.182;4.474;2024-01-06T05:51:47;3.63;;;1.20;;
72611;SDS011;60655;52.182;4.474;2024-01-06T05:53:48;3.42;;;1.20;;
72611;SDS011;60655;52.182;4.474;2024-01-06T05:55:49;4.65;;;1.42;;
72611;SDS011;60655;52.182;4.474;2024-01-06T05:57:49;4.95;;;1.70;;
72611;SDS011;60655;52.182;4.474;2024-01-06T05:59:50;6.63;;;1.35;;
72611;SDS011;60655;52.182;4.474;2024-01-06T06:01:51;5.55;;;1.50;;
72611;SDS011;60655;52.182;4.474;2024-01-06T06:03:52;7.28;;;1.77;;
72611;SDS011;60655;52.182;4.474;2024-01-06T06:05:53;7.80;;;2.00;;
72611;SDS011;60655;52.182;4.474;2024-01-06T06:07:54;4.45;;;1.85;;
72611;SDS011;60655;52.182;4.474;2024-01-06T06:09:55;6.40;;;1.90;;
72611;SDS011;60655;52.182;4.474;2024-01-06T06:11:56;7.35;;;2.00;;
72611;SDS011;60655;52.182;4.474;2024-01-06T06:13:57;4.97;;;1.83;;
72611;SDS011;60655;52.182;4.474;2024-01-06T06:15:58;5.68;;;1.80;;
72611;SDS011;60655;52.182;4.474;2024-01-06T06:17:59;6.13;;;1.85;;
72611;SDS011;60655;52.182;4.474;2024-01-06T06:20:02;4.75;;;1.80;;
72611;SDS011;60655;52.182;4.474;2024-01-06T06:22:03;5.88;;;1.77;;
72611;SDS011;60655;52.182;4.474;2024-01-06T06:26:05;5.70;;;1.85;;
72611;SDS011;60655;52.182;4.474;2024-01-06T06:28:07;6.75;;;1.98;;
72611;SDS011;60655;52.182;4.474;2024-01-06T06:30:08;3.75;;;1.67;;
72611;SDS011;60655;52.182;4.474;2024-01-06T06:32:09;3.80;;;1.50;;
72611;SDS011;60655;52.182;4.474;2024-01-06T06:34:10;4.68;;;1.77;;
72611;SDS011;60655;52.182;4.474;2024-01-06T06:36:11;4.10;;;1.63;;
72611;SDS011;60655;52.182;4.474;2024-01-06T06:38:12;4.38;;;1.80;;
72611;SDS011;60655;52.182;4.474;2024-01-06T06:40:13;5.35;;;1.90;;
72611;SDS011;60655;52.182;4.474;2024-01-06T06:42:14;6.07;;;1.50;;
72611;SDS011;60655;52.182;4.474;2024-01-06T06:44:15;4.30;;;1.63;;
72611;SDS011;60655;52.182;4.474;2024-01-06T06:46:16;6.07;;;1.90;;
72611;SDS011;60655;52.182;4.474;2024-01-06T06:48:17;4.18;;;1.90;;
72611;SDS011;60655;52.182;4.474;2024-01-06T06:50:18;6.97;;;2.40;;
72611;SDS011;60655;52.182;4.474;2024-01-06T06:52:21;5.07;;;2.17;;
72611;SDS011;60655;52.182;4.474;2024-01-06T06:54:22;7.90;;;2.20;;
72611;SDS011;60655;52.182;4.474;2024-01-06T06:56:23;6.75;;;2.55;;
72611;SDS011;60655;52.182;4.474;2024-01-06T06:58:23;7.25;;;2.38;;
72611;SDS011;60655;52.182;4.474;2024-01-06T07:00:24;8.55;;;2.63;;
72611;SDS011;60655;52.182;4.474;2024-01-06T07:02:26;6.38;;;2.70;;
72611;SDS011;60655;52.182;4.474;2024-01-06T07:04:28;7.72;;;2.50;;
72611;SDS011;60655;52.182;4.474;2024-01-06T07:06:29;9.32;;;3.20;;
72611;SDS011;60655;52.182;4.474;2024-01-06T07:08:31;6.43;;;3.08;;
72611;SDS011;60655;52.182;4.474;2024-01-06T07:10:32;5.50;;;2.40;;
72611;SDS011;60655;52.182;4.474;2024-01-06T07:12:33;8.93;;;2.65;;
72611;SDS011;60655;52.182;4.474;2024-01-06T07:14:33;9.27;;;2.80;;
72611;SDS011;60655;52.182;4.474;2024-01-06T07:16:34;8.07;;;3.00;;
72611;SDS011;60655;52.182;4.474;2024-01-06T07:18:35;8.52;;;2.80;;
72611;SDS011;60655;52.182;4.474;2024-01-06T07:20:36;10.30;;;2.58;;
72611;SDS011;60655;52.182;4.474;2024-01-06T07:22:37;7.50;;;2.60;;
72611;SDS011;60655;52.182;4.474;2024-01-06T07:24:38;6.70;;;2.80;;
72611;SDS011;60655;52.182;4.474;2024-01-06T07:26:39;6.07;;;2.40;;
72611;SDS011;60655;52.182;4.474;2024-01-06T07:28:40;7.55;;;3.05;;
72611;SDS011;60655;52.182;4.474;2024-01-06T07:30:41;9.30;;;2.95;;
72611;SDS011;60655;52.182;4.474;2024-01-06T07:32:42;6.78;;;2.55;;
72611;SDS011;60655;52.182;4.474;2024-01-06T07:34:43;6.65;;;2.80;;
72611;SDS011;60655;52.182;4.474;2024-01-06T07:38:44;7.05;;;2.55;;
72611;SDS011;60655;52.182;4.474;2024-01-06T07:40:46;8.23;;;3.10;;
72611;SDS011;60655;52.182;4.474;2024-01-06T07:42:47;9.25;;;3.00;;
72611;SDS011;60655;52.182;4.474;2024-01-06T07:44:48;7.15;;;2.80;;
72611;SDS011;60655;52.182;4.474;2024-01-06T07:46:49;6.20;;;2.60;;
72611;SDS011;60655;52.182;4.474;2024-01-06T07:48:50;11.32;;;2.53;;
72611;SDS011;60655;52.182;4.474;2024-01-06T07:50:51;6.93;;;2.88;;
72611;SDS011;60655;52.182;4.474;2024-01-06T07:52:52;6.82;;;2.70;;
72611;SDS011;60655;52.182;4.474;2024-01-06T07:54:52;5.45;;;2.28;;
72611;SDS011;60655;52.182;4.474;2024-01-06T07:56:53;8.95;;;2.30;;
72611;SDS011;60655;52.182;4.474;2024-01-06T07:58:54;9.52;;;3.00;;
72611;SDS011;60655;52.182;4.474;2024-01-06T08:00:55;6.88;;;2.40;;
72611;SDS011;60655;52.182;4.474;2024-01-06T08:02:56;6.00;;;2.65;;
72611;SDS011;60655;52.182;4.474;2024-01-06T08:04:57;10.10;;;2.47;;
72611;SDS011;60655;52.182;4.474;2024-01-06T08:06:58;10.80;;;2.42;;
72611;SDS011;60655;52.182;4.474;2024-01-06T08:08:59;7.65;;;2.63;;
72611;SDS011;60655;52.182;4.474;2024-01-06T08:11:00;8.23;;;2.50;;
72611;SDS011;60655;52.182;4.474;2024-01-06T08:13:01;8.98;;;2.60;;
72611;SDS011;60655;52.182;4.474;2024-01-06T08:17:05;10.05;;;2.30;;
72611;SDS011;60655;52.182;4.474;2024-01-06T08:19:06;9.05;;;2.00;;
72611;SDS011;60655;52.182;4.474;2024-01-06T08:21:06;6.53;;;2.45;;
72611;SDS011;60655;52.182;4.474;2024-01-06T08:23:07;8.90;;;2.45;;
72611;SDS011;60655;52.182;4.474;2024-01-06T08:25:08;8.43;;;2.30;;
72611;SDS011;60655;52.182;4.474;2024-01-06T08:27:09;9.48;;;2.63;;
72611;SDS011;60655;52.182;4.474;2024-01-06T08:29:10;5.90;;;2.13;;
72611;SDS011;60655;52.182;4.474;2024-01-06T08:31:11;7.88;;;2.40;;
72611;SDS011;60655;52.182;4.474;2024-01-06T08:33:12;7.40;;;2.20;;
72611;SDS011;60655;52.182;4.474;2024-01-06T08:35:13;6.30;;;1.98;;
72611;SDS011;60655;52.182;4.474;2024-01-06T08:37:17;6.32;;;1.85;;
72611;SDS011;60655;52.182;4.474;2024-01-06T08:39:18;7.57;;;2.13;;
72611;SDS011;60655;52.182;4.474;2024-01-06T08:41:19;8.27;;;2.03;;
72611;SDS011;60655;52.182;4.474;2024-01-06T08:43:20;6.25;;;1.80;;
72611;SDS011;60655;52.182;4.474;2024-01-06T08:45:21;5.22;;;2.20;;
72611;SDS011;60655;52.182;4.474;2024-01-06T08:47:23;6.65;;;2.17;;
72611;SDS011;60655;52.182;4.474;2024-01-06T08:49:24;6.60;;;2.05;;
72611;SDS011;60655;52.182;4.474;2024-01-06T08:51:24;7.30;;;2.17;;
72611;SDS011;60655;52.182;4.474;2024-01-06T08:53:26;8.23;;;1.98;;
72611;SDS011;60655;52.182;4.474;2024-01-06T08:55:27;5.35;;;2.13;;
72611;SDS011;60655;52.182;4.474;2024-01-06T08:57:28;6.65;;;2.10;;
72611;SDS011;60655;52.182;4.474;2024-01-06T08:59:29;3.97;;;1.70;;
72611;SDS011;60655;52.182;4.474;2024-01-06T09:01:30;5.57;;;1.73;;
72611;SDS011;60655;52.182;4.474;2024-01-06T09:03:32;4.72;;;1.83;;
72611;SDS011;60655;52.182;4.474;2024-01-06T09:05:33;9.32;;;2.22;;
72611;SDS011;60655;52.182;4.474;2024-01-06T09:07:34;7.13;;;2.00;;
72611;SDS011;60655;52.182;4.474;2024-01-06T09:09:35;5.15;;;1.83;;
72611;SDS011;60655;52.182;4.474;2024-01-06T09:11:36;4.95;;;1.90;;
72611;SDS011;60655;52.182;4.474;2024-01-06T09:13:37;6.18;;;1.67;;
72611;SDS011;60655;52.182;4.474;2024-01-06T09:15:38;5.57;;;1.60;;
72611;SDS011;60655;52.182;4.474;2024-01-06T09:17:38;6.55;;;2.00;;
72611;SDS011;60655;52.182;4.474;2024-01-06T09:19:39;5.13;;;1.50;;
72611;SDS011;60655;52.182;4.474;2024-01-06T09:21:40;5.63;;;1.90;;
72611;SDS011;60655;52.182;4.474;2024-01-06T09:23:41;9.07;;;2.17;;
72611;SDS011;60655;52.182;4.474;2024-01-06T09:25:42;6.78;;;2.03;;
72611;SDS011;60655;52.182;4.474;2024-01-06T09:27:44;7.55;;;1.98;;
72611;SDS011;60655;52.182;4.474;2024-01-06T09:29:45;7.32;;;1.88;;
72611;SDS011;60655;52.182;4.474;2024-01-06T09:31:46;3.70;;;1.40;;
72611;SDS011;60655;52.182;4.474;2024-01-06T09:33:47;5.68;;;1.70;;
72611;SDS011;60655;52.182;4.474;2024-01-06T09:35:47;6.75;;;1.50;;
72611;SDS011;60655;52.182;4.474;2024-01-06T09:37:48;6.30;;;1.77;;
72611;SDS011;60655;52.182;4.474;2024-01-06T09:39:49;3.92;;;1.52;;
72611;SDS011;60655;52.182;4.474;2024-01-06T09:41:51;6.93;;;1.55;;
72611;SDS011;60655;52.182;4.474;2024-01-06T09:43:52;7.85;;;1.85;;
72611;SDS011;60655;52.182;4.474;2024-01-06T09:45:58;4.53;;;1.80;;
72611;SDS011;60655;52.182;4.474;2024-01-06T09:48:15;6.00;;;1.52;;
72611;SDS011;60655;52.182;4.474;2024-01-06T09:50:18;5.90;;;1.58;;
72611;SDS011;60655;52.182;4.474;2024-01-06T09:52:23;6.47;;;1.55;;
72611;SDS011;60655;52.182;4.474;2024-01-06T09:54:24;7.15;;;2.42;;
72611;SDS011;60655;52.182;4.474;2024-01-06T09:56:26;5.22;;;1.50;;
72611;SDS011;60655;52.182;4.474;2024-01-06T09:58:28;4.72;;;1.55;;
72611;SDS011;60655;52.182;4.474;2024-01-06T10:00:33;3.20;;;1.42;;
72611;SDS011;60655;52.182;4.474;2024-01-06T10:02:34;4.78;;;1.48;;
72611;SDS011;60655;52.182;4.474;2024-01-06T10:04:35;6.90;;;1.70;;
72611;SDS011;60655;52.182;4.474;2024-01-06T10:06:36;5.32;;;1.52;;
72611;SDS011;60655;52.182;4.474;2024-01-06T10:08:37;5.38;;;1.52;;
72611;SDS011;60655;52.182;4.474;2024-01-06T10:10:41;7.93;;;1.75;;
72611;SDS011;60655;52.182;4.474;2024-01-06T10:12:42;4.70;;;1.55;;
72611;SDS011;60655;52.182;4.474;2024-01-06T10:14:43;6.30;;;1.90;;
72611;SDS011;60655;52.182;4.474;2024-01-06T10:16:44;5.80;;;1.88;;
72611;SDS011;60655;52.182;4.474;2024-01-06T10:18:46;4.75;;;1.70;;
72611;SDS011;60655;52.182;4.474;2024-01-06T10:20:47;4.57;;;1.70;;
72611;SDS011;60655;52.182;4.474;2024-01-06T10:22:49;4.00;;;1.63;;
72611;SDS011;60655;52.182;4.474;2024-01-06T10:24:51;6.60;;;1.80;;
72611;SDS011;60655;52.182;4.474;2024-01-06T10:26:52;6.18;;;1.98;;
72611;SDS011;60655;52.182;4.474;2024-01-06T10:28:53;4.18;;;1.70;;
72611;SDS011;60655;52.182;4.474;2024-01-06T10:30:54;4.78;;;1.75;;
72611;SDS011;60655;52.182;4.474;2024-01-06T10:32:56;6.03;;;1.90;;
72611;SDS011;60655;52.182;4.474;2024-01-06T10:34:57;4.55;;;1.92;;
72611;SDS011;60655;52.182;4.474;2024-01-06T10:36:58;7.07;;;2.00;;
72611;SDS011;60655;52.182;4.474;2024-01-06T10:38:59;6.88;;;2.13;;
72611;SDS011;60655;52.182;4.474;2024-01-06T10:41:03;5.60;;;1.92;;
72611;SDS011;60655;52.182;4.474;2024-01-06T10:43:10;4.82;;;1.60;;
72611;SDS011;60655;52.182;4.474;2024-01-06T10:45:12;8.80;;;2.00;;
72611;SDS011;60655;52.182;4.474;2024-01-06T10:47:14;5.72;;;1.95;;
72611;SDS011;60655;52.182;4.474;2024-01-06T10:49:17;5.03;;;2.03;;
72611;SDS011;60655;52.182;4.474;2024-01-06T10:51:21;7.28;;;2.05;;
72611;SDS011;60655;52.182;4.474;2024-01-06T10:53:26;6.00;;;2.08;;
72611;SDS011;60655;52.182;4.474;2024-01-06T10:55:27;9.30;;;2.15;;
72611;SDS011;60655;52.182;4.474;2024-01-06T10:57:29;6.95;;;1.88;;
72611;SDS011;60655;52.182;4.474;2024-01-06T10:59:32;6.70;;;2.13;;
72611;SDS011;60655;52.182;4.474;2024-01-06T11:01:33;7.72;;;2.13;;
72611;SDS011;60655;52.182;4.474;2024-01-06T11:03:38;7.63;;;2.30;;
72611;SDS011;60655;52.182;4.474;2024-01-06T11:05:40;5.15;;;2.00;;
72611;SDS011;60655;52.182;4.474;2024-01-06T11:07:43;4.40;;;1.77;;
72611;SDS011;60655;52.182;4.474;2024-01-06T11:09:52;5.80;;;1.90;;
72611;SDS011;60655;52.182;4.474;2024-01-06T11:12:01;5.13;;;1.80;;
72611;SDS011;60655;52.182;4.474;2024-01-06T11:16:35;8.15;;;1.40;;
72611;SDS011;60655;52.182;4.474;2024-01-06T11:18:38;4.70;;;1.85;;
72611;SDS011;60655;52.182;4.474;2024-01-06T11:21:02;5.22;;;1.60;;
72611;SDS011;60655;52.182;4.474;2024-01-06T11:23:17;3.80;;;1.45;;
72611;SDS011;60655;52.182;4.474;2024-01-06T11:25:22;8.82;;;2.00;;
72611;SDS011;60655;52.182;4.474;2024-01-06T11:29:30;6.03;;;1.67;;
72611;SDS011;60655;52.182;4.474;2024-01-06T11:31:31;3.60;;;1.38;;
72611;SDS011;60655;52.182;4.474;2024-01-06T11:35:33;4.50;;;1.40;;
72611;SDS011;60655;52.182;4.474;2024-01-06T11:39:41;5.43;;;1.60;;
72611;SDS011;60655;52.182;4.474;2024-01-06T11:41:48;3.85;;;1.23;;
72611;SDS011;60655;52.182;4.474;2024-01-06T11:43:53;3.15;;;1.10;;
72611;SDS011;60655;52.182;4.474;2024-01-06T11:48:00;3.03;;;1.30;;
72611;SDS011;60655;52.182;4.474;2024-01-06T11:50:08;2.60;;;0.95;;
72611;SDS011;60655;52.182;4.474;2024-01-06T11:52:10;5.18;;;1.23;;
72611;SDS011;60655;52.182;4.474;2024-01-06T11:54:12;2.85;;;1.00;;
72611;SDS011;60655;52.182;4.474;2024-01-06T11:56:13;3.03;;;0.93;;
72611;SDS011;60655;52.182;4.474;2024-01-06T11:58:18;5.18;;;0.90;;
72611;SDS011;60655;52.182;4.474;2024-01-06T12:00:19;4.85;;;1.40;;
72611;SDS011;60655;52.182;4.474;2024-01-06T12:02:20;5.00;;;1.20;;
72611;SDS011;60655;52.182;4.474;2024-01-06T12:04:25;4.53;;;0.98;;
72611;SDS011;60655;52.182;4.474;2024-01-06T12:06:27;3.38;;;0.95;;
72611;SDS011;60655;52.182;4.474;2024-01-06T12:08:28;3.47;;;1.15;;
72611;SDS011;60655;52.182;4.474;2024-01-06T12:10:29;3.22;;;1.05;;
72611;SDS011;60655;52.182;4.474;2024-01-06T12:12:30;3.58;;;1.10;;
72611;SDS011;60655;52.182;4.474;2024-01-06T12:14:32;4.80;;;1.17;;
72611;SDS011;60655;52.182;4.474;2024-01-06T12:16:33;4.07;;;1.30;;
72611;SDS011;60655;52.182;4.474;2024-01-06T12:18:35;6.32;;;1.35;;
72611;SDS011;60655;52.182;4.474;2024-01-06T12:20:36;2.63;;;1.20;;
72611;SDS011;60655;52.182;4.474;2024-01-06T12:22:37;2.85;;;1.20;;
72611;SDS011;60655;52.182;4.474;2024-01-06T12:24:39;3.00;;;1.20;;
72611;SDS011;60655;52.182;4.474;2024-01-06T12:26:44;5.03;;;1.10;;
72611;SDS011;60655;52.182;4.474;2024-01-06T12:28:45;4.95;;;1.30;;
72611;SDS011;60655;52.182;4.474;2024-01-06T12:30:47;7.90;;;1.73;;
72611;SDS011;60655;52.182;4.474;2024-01-06T12:32:48;6.15;;;1.50;;
72611;SDS011;60655;52.182;4.474;2024-01-06T12:34:50;4.10;;;1.30;;
72611;SDS011;60655;52.182;4.474;2024-01-06T12:38:53;2.25;;;1.00;;
72611;SDS011;60655;52.182;4.474;2024-01-06T12:40:56;2.42;;;0.95;;
72611;SDS011;60655;52.182;4.474;2024-01-06T12:42:57;4.63;;;1.30;;
72611;SDS011;60655;52.182;4.474;2024-01-06T12:46:59;2.22;;;1.02;;
72611;SDS011;60655;52.182;4.474;2024-01-06T12:49:00;3.92;;;1.05;;
72611;SDS011;60655;52.182;4.474;2024-01-06T12:51:01;4.65;;;1.45;;
72611;SDS011;60655;52.182;4.474;2024-01-06T12:53:02;5.50;;;1.30;;
72611;SDS011;60655;52.182;4.474;2024-01-06T12:55:03;4.97;;;1.30;;